Time;durP1;ratioP1;P1;durP2;ratioP2;P2;SDS_P1;SDS_P2;PMS_P1;PMS_P2;Temp;Humidity;BMP_temperature;BMP_pressure;BME280_temperature;BME280_humidity;BME280_pressure;Samples;Min_cycle;Max_cycle;Signal;HPM_P1;HPM_P2
2024/03/13 00:00:10;;;;;;;3.57;2.30;;;10.40;99.90;;;;;;5074245;28;20429;-48
2024/03/13 00:02:45;;;;;;;2.47;2.20;;;10.40;99.90;;;;;;5086308;28;20487;-48
2024/03/13 00:05:14;;;;;;;2.43;1.67;;;10.40;99.90;;;;;;5072227;28;21053;-47
2024/03/13 00:07:42;;;;;;;2.87;2.30;;;10.30;99.90;;;;;;5073341;28;20466;-47
2024/03/13 00:10:10;;;;;;;3.07;2.23;;;10.30;99.90;;;;;;5072909;28;20430;-49
2024/03/13 00:12:42;;;;;;;2.67;1.90;;;10.30;99.90;;;;;;5069476;28;20820;-49
2024/03/13 00:15:11;;;;;;;2.60;2.20;;;10.30;99.90;;;;;;5072043;28;20448;-47
2024/03/13 00:17:39;;;;;;;2.73;1.87;;;10.30;99.90;;;;;;5072459;28;20451;-49
2024/03/13 00:20:11;;;;;;;2.70;2.30;;;10.30;99.90;;;;;;5071509;28;20466;-47
2024/03/13 00:22:41;;;;;;;3.33;2.93;;;10.30;99.90;;;;;;5071597;28;21094;-50
2024/03/13 00:25:11;;;;;;;2.77;2.23;;;10.30;99.90;;;;;;5068921;28;20942;-49
2024/03/13 00:27:41;;;;;;;3.00;2.30;;;10.30;99.90;;;;;;5069563;28;20476;-46
2024/03/13 00:30:10;;;;;;;2.73;2.00;;;10.30;99.90;;;;;;5074606;28;20984;-47
2024/03/13 00:32:38;;;;;;;2.43;2.00;;;10.30;99.90;;;;;;5070525;28;20458;-47
2024/03/13 00:35:07;;;;;;;2.37;1.87;;;10.30;99.90;;;;;;5075719;28;20837;-47
2024/03/13 00:37:35;;;;;;;3.00;2.07;;;10.30;99.90;;;;;;5077086;28;20447;-49
2024/03/13 00:40:06;;;;;;;2.67;2.13;;;10.30;99.90;;;;;;5077960;28;20815;-49
2024/03/13 00:42:34;;;;;;;3.20;2.60;;;10.30;99.90;;;;;;5072615;28;20821;-48
2024/03/13 00:45:02;;;;;;;2.70;2.17;;;10.30;99.90;;;;;;5077855;28;20432;-49
2024/03/13 00:47:31;;;;;;;2.83;2.17;;;10.30;99.90;;;;;;5077080;28;20493;-48
2024/03/13 00:49:59;;;;;;;2.80;2.00;;;10.30;99.90;;;;;;5075298;28;20449;-48
2024/03/13 00:52:28;;;;;;;2.93;2.10;;;10.30;99.90;;;;;;5072489;28;20457;-49
2024/03/13 00:54:57;;;;;;;2.60;1.80;;;10.30;99.90;;;;;;5076339;28;20434;-49
2024/03/13 00:57:27;;;;;;;2.33;1.80;;;10.30;99.90;;;;;;5088726;28;20457;-49
2024/03/13 00:59:55;;;;;;;2.27;1.67;;;10.30;99.90;;;;;;5077215;28;20439;-47
2024/03/13 01:02:23;;;;;;;2.33;1.90;;;10.30;99.90;;;;;;5076283;28;20950;-47
2024/03/13 01:04:54;;;;;;;2.50;1.90;;;10.30;99.90;;;;;;5077708;28;20816;-48
2024/03/13 01:07:23;;;;;;;2.30;1.47;;;10.30;99.90;;;;;;5075275;28;20468;-48
2024/03/13 01:09:51;;;;;;;3.33;2.70;;;10.30;99.90;;;;;;5077445;28;20814;-48
2024/03/13 01:12:19;;;;;;;2.87;2.30;;;10.30;99.90;;;;;;5069560;28;20447;-49
2024/03/13 01:14:49;;;;;;;2.40;2.00;;;10.30;99.90;;;;;;5077024;28;20531;-49
2024/03/13 01:17:17;;;;;;;2.60;1.80;;;10.30;99.90;;;;;;5090377;28;20986;-48
2024/03/13 01:19:46;;;;;;;2.43;1.70;;;10.30;99.90;;;;;;5076427;28;20470;-49
2024/03/13 01:22:17;;;;;;;2.23;1.83;;;10.30;99.90;;;;;;5072236;28;20492;-48
2024/03/13 01:24:46;;;;;;;2.43;1.83;;;10.30;99.90;;;;;;5074673;28;20423;-47
2024/03/13 01:27:14;;;;;;;4.00;1.93;;;10.30;99.90;;;;;;5074493;28;20466;-49
2024/03/13 01:29:46;;;;;;;2.43;2.10;;;10.30;99.90;;;;;;5075623;28;20450;-48
2024/03/13 01:32:17;;;;;;;2.40;2.20;;;10.30;99.90;;;;;;5076009;28;20437;-49
2024/03/13 01:34:47;;;;;;;3.43;1.97;;;10.30;99.90;;;;;;5073952;28;20433;-46
2024/03/13 01:40:03;;;;;;;2.27;1.90;;;10.30;99.90;;;;;;5075924;28;20503;-49
2024/03/13 01:57:13;;;;;;;3.20;2.30;;;10.30;99.90;;;;;;5075510;28;20433;-48
2024/03/13 02:02:21;;;;;;;2.80;2.07;;;10.30;99.90;;;;;;5075562;28;20456;-49
2024/03/13 02:02:39;;;;;;;2.30;1.73;;;10.30;99.90;;;;;;5069386;28;20505;-49
2024/03/13 02:05:09;;;;;;;3.20;2.10;;;10.30;99.90;;;;;;5075156;28;20957;-48
2024/03/13 02:07:37;;;;;;;2.70;2.13;;;10.30;99.90;;;;;;5075761;28;20459;-49
2024/03/13 02:10:06;;;;;;;2.67;1.53;;;10.30;99.90;;;;;;5076601;28;20429;-48
2024/03/13 02:12:34;;;;;;;2.27;1.87;;;10.30;99.90;;;;;;5072583;28;20538;-48
2024/03/13 02:15:04;;;;;;;2.50;1.87;;;10.30;99.90;;;;;;5075051;28;20432;-48
2024/03/13 02:17:37;;;;;;;2.03;1.77;;;10.30;99.90;;;;;;5075167;28;20450;-48
2024/03/13 02:20:07;;;;;;;2.67;1.87;;;10.30;99.90;;;;;;5073530;28;20991;-46
2024/03/13 02:22:37;;;;;;;2.60;1.90;;;10.30;99.90;;;;;;5072652;28;20504;-47
2024/03/13 02:25:05;;;;;;;2.50;2.07;;;10.30;99.90;;;;;;5074726;28;20438;-47
2024/03/13 02:27:34;;;;;;;2.80;1.80;;;10.30;99.90;;;;;;5054340;28;20474;-47
2024/03/13 02:30:05;;;;;;;3.63;2.23;;;10.30;99.90;;;;;;5074800;28;20950;-47
2024/03/13 02:32:33;;;;;;;2.17;1.80;;;10.30;99.90;;;;;;5073783;28;20468;-49
2024/03/13 02:35:03;;;;;;;3.30;2.27;;;10.30;99.90;;;;;;5072141;28;20451;-49
2024/03/13 02:37:31;;;;;;;2.43;1.77;;;10.30;99.90;;;;;;5072383;28;20444;-49
2024/03/13 02:39:59;;;;;;;2.67;2.17;;;10.30;99.90;;;;;;5074680;28;20451;-49
2024/03/13 02:42:27;;;;;;;2.23;1.70;;;10.30;99.90;;;;;;5064554;28;20833;-47
2024/03/13 02:44:56;;;;;;;2.27;1.60;;;10.30;99.90;;;;;;5072496;28;20474;-49
2024/03/13 02:47:24;;;;;;;2.57;1.93;;;10.30;99.90;;;;;;5072097;28;20971;-51
2024/03/13 02:49:53;;;;;;;2.60;1.87;;;10.30;99.90;;;;;;5073294;28;20964;-49
2024/03/13 02:52:23;;;;;;;2.50;1.53;;;10.30;99.90;;;;;;5070520;28;20450;-50
2024/03/13 02:54:52;;;;;;;2.30;1.90;;;10.30;99.90;;;;;;5075162;28;20439;-47
2024/03/13 02:57:20;;;;;;;2.03;1.60;;;10.30;99.90;;;;;;5068490;28;20456;-47
2024/03/13 02:59:49;;;;;;;2.83;2.20;;;10.30;99.90;;;;;;5074687;28;20437;-47
2024/03/13 03:02:17;;;;;;;2.47;1.60;;;10.30;99.90;;;;;;5071584;28;20679;-48
2024/03/13 03:04:46;;;;;;;2.40;1.97;;;10.30;99.90;;;;;;5071561;28;20431;-48
2024/03/13 03:07:14;;;;;;;2.83;2.13;;;10.30;99.90;;;;;;5073596;28;20477;-49
2024/03/13 03:09:42;;;;;;;2.50;1.83;;;10.30;99.90;;;;;;5072740;28;20475;-51
2024/03/13 03:12:10;;;;;;;2.23;2.03;;;10.30;99.90;;;;;;5069410;28;20450;-48
2024/03/13 03:14:39;;;;;;;2.40;1.60;;;10.30;99.90;;;;;;5074133;28;20428;-48
2024/03/13 03:17:07;;;;;;;2.90;1.90;;;10.30;99.90;;;;;;5070740;28;20458;-48
2024/03/13 03:19:36;;;;;;;2.27;1.73;;;10.30;99.90;;;;;;5073080;28;20495;-48
2024/03/13 03:22:04;;;;;;;2.33;1.53;;;10.30;99.90;;;;;;5072569;28;20522;-49
2024/03/13 03:24:32;;;;;;;2.53;1.77;;;10.30;99.90;;;;;;5069945;28;20459;-48
2024/03/13 03:27:00;;;;;;;2.20;1.80;;;10.30;99.90;;;;;;5068632;28;20436;-48
2024/03/13 03:29:28;;;;;;;2.63;2.10;;;10.30;99.90;;;;;;5073034;28;20461;-48
2024/03/13 03:31:56;;;;;;;2.60;1.67;;;10.30;99.90;;;;;;5075068;28;20431;-48
2024/03/13 03:34:24;;;;;;;2.37;2.17;;;10.30;99.90;;;;;;5072600;28;20451;-49
2024/03/13 03:36:53;;;;;;;2.60;1.73;;;10.30;99.90;;;;;;5074249;28;20436;-51
2024/03/13 03:39:24;;;;;;;3.00;2.30;;;10.30;99.90;;;;;;5063200;28;20962;-48
2024/03/13 03:41:53;;;;;;;2.30;1.87;;;10.30;99.90;;;;;;5070713;28;20447;-48
2024/03/13 03:44:21;;;;;;;2.57;1.83;;;10.20;99.90;;;;;;5067416;28;20489;-49
2024/03/13 03:46:50;;;;;;;1.77;1.30;;;10.30;99.90;;;;;;5072438;28;20532;-49
2024/03/13 03:49:18;;;;;;;1.87;1.30;;;10.30;99.90;;;;;;5073608;28;20479;-49
2024/03/13 03:51:46;;;;;;;2.17;1.67;;;10.30;99.90;;;;;;5072657;28;20467;-50
2024/03/13 03:54:14;;;;;;;2.43;1.73;;;10.30;99.90;;;;;;5072354;28;20429;-50
2024/03/13 03:56:43;;;;;;;5.53;1.67;;;10.30;99.90;;;;;;5071701;28;20829;-49
2024/03/13 03:59:11;;;;;;;3.00;2.00;;;10.30;99.90;;;;;;5074345;28;20484;-49
2024/03/13 04:01:40;;;;;;;2.47;1.80;;;10.30;99.90;;;;;;5073554;28;20463;-50
2024/03/13 04:04:08;;;;;;;2.37;1.70;;;10.30;99.90;;;;;;5073284;28;20455;-48
2024/03/13 04:06:37;;;;;;;1.70;1.40;;;10.30;99.90;;;;;;5067574;28;20426;-49
2024/03/13 04:09:14;;;;;;;2.17;1.50;;;10.30;99.90;;;;;;5057557;28;20918;-48
2024/03/13 04:11:43;;;;;;;2.53;1.60;;;10.30;99.90;;;;;;5069402;28;20447;-50
2024/03/13 04:14:12;;;;;;;2.20;1.50;;;10.20;99.90;;;;;;5072598;28;20493;-48
2024/03/13 04:16:41;;;;;;;2.47;1.80;;;10.20;99.90;;;;;;5073145;28;20443;-49
2024/03/13 04:19:10;;;;;;;2.50;1.80;;;10.30;99.90;;;;;;5069065;28;20439;-48
2024/03/13 04:21:39;;;;;;;2.60;1.77;;;10.20;99.90;;;;;;5069791;28;21034;-50
2024/03/13 04:24:07;;;;;;;2.33;1.63;;;10.20;99.90;;;;;;5067069;28;20507;-48
2024/03/13 04:26:40;;;;;;;1.67;1.13;;;10.30;99.90;;;;;;5068481;28;20990;-48
2024/03/13 04:29:10;;;;;;;2.30;2.00;;;10.30;99.90;;;;;;5055450;28;20831;-48
2024/03/13 04:31:39;;;;;;;2.50;1.67;;;10.30;99.90;;;;;;5071237;28;20446;-48
2024/03/13 04:34:08;;;;;;;2.10;1.37;;;10.20;99.90;;;;;;5070138;28;20430;-48
2024/03/13 04:36:39;;;;;;;2.00;1.40;;;10.20;99.90;;;;;;5054794;28;20430;-47
2024/03/13 04:39:08;;;;;;;2.27;1.30;;;10.20;99.90;;;;;;5040188;28;20441;-50
2024/03/13 04:41:39;;;;;;;1.70;1.40;;;10.30;99.90;;;;;;5069096;28;20443;-47
2024/03/13 04:44:09;;;;;;;1.93;1.70;;;10.30;99.90;;;;;;5071476;28;20442;-49
2024/03/13 04:46:38;;;;;;;2.23;1.60;;;10.20;99.90;;;;;;5072533;28;20451;-48
2024/03/13 04:49:08;;;;;;;1.97;1.77;;;10.30;99.90;;;;;;5058194;28;20469;-49
2024/03/13 04:51:37;;;;;;;1.90;1.43;;;10.30;99.90;;;;;;5073171;28;20446;-50
2024/03/13 04:54:07;;;;;;;2.80;2.07;;;10.30;99.90;;;;;;5074122;28;20447;-48
2024/03/13 04:56:35;;;;;;;1.90;1.73;;;10.20;99.90;;;;;;5066530;28;20478;-50
2024/03/13 04:59:03;;;;;;;1.77;1.27;;;10.20;99.90;;;;;;5072751;28;20520;-48
2024/03/13 05:01:31;;;;;;;2.13;1.40;;;10.20;99.90;;;;;;5071029;28;20424;-49
2024/03/13 05:04:00;;;;;;;1.80;1.50;;;10.30;99.90;;;;;;5075200;28;20431;-48
2024/03/13 05:06:28;;;;;;;2.13;1.50;;;10.20;99.90;;;;;;5071666;28;20450;-49
2024/03/13 05:08:56;;;;;;;2.70;1.50;;;10.20;99.90;;;;;;5058220;28;20509;-48
2024/03/13 05:11:24;;;;;;;2.60;2.00;;;10.20;99.90;;;;;;5071966;28;20811;-48
2024/03/13 05:13:54;;;;;;;2.23;1.40;;;10.30;99.90;;;;;;5074406;28;20416;-49
2024/03/13 05:16:23;;;;;;;1.80;1.27;;;10.20;99.90;;;;;;5067629;28;20438;-48
2024/03/13 05:18:52;;;;;;;2.83;2.07;;;10.20;99.90;;;;;;5061096;28;20442;-50
2024/03/13 05:21:21;;;;;;;1.90;1.60;;;10.20;99.90;;;;;;5075279;28;20496;-49
2024/03/13 05:23:49;;;;;;;2.90;2.03;;;10.20;99.90;;;;;;5077210;28;20434;-49
2024/03/13 05:26:18;;;;;;;1.90;1.37;;;10.20;99.90;;;;;;5074165;28;20472;-48
2024/03/13 05:28:46;;;;;;;1.97;1.50;;;10.20;99.90;;;;;;5059813;28;20461;-48
2024/03/13 05:31:14;;;;;;;1.90;1.20;;;10.20;99.90;;;;;;5077483;28;20440;-48
2024/03/13 05:33:43;;;;;;;2.20;1.30;;;10.20;99.90;;;;;;5075553;28;20541;-48
2024/03/13 05:36:12;;;;;;;1.93;1.23;;;10.20;99.90;;;;;;5075563;28;20435;-49
2024/03/13 05:38:40;;;;;;;2.07;1.47;;;10.20;99.90;;;;;;5058350;28;20455;-47
2024/03/13 05:41:09;;;;;;;2.10;1.20;;;10.20;99.90;;;;;;5068877;28;20459;-47
2024/03/13 05:43:37;;;;;;;2.00;1.40;;;10.20;99.90;;;;;;5074872;28;20434;-49
2024/03/13 05:46:07;;;;;;;2.60;1.70;;;10.20;99.90;;;;;;5074205;28;20975;-49
2024/03/13 05:48:35;;;;;;;2.53;1.60;;;10.20;99.90;;;;;;5058068;28;20450;-48
2024/03/13 05:51:06;;;;;;;2.00;1.63;;;10.20;99.90;;;;;;5074659;28;20453;-50
2024/03/13 05:53:34;;;;;;;1.50;1.10;;;10.20;99.90;;;;;;5057037;28;20435;-50
2024/03/13 05:56:02;;;;;;;2.03;1.43;;;10.20;99.90;;;;;;5058419;28;20459;-48
2024/03/13 05:58:31;;;;;;;2.13;1.20;;;10.20;99.90;;;;;;5072021;28;20447;-47
2024/03/13 06:01:01;;;;;;;1.90;1.60;;;10.20;99.90;;;;;;5074100;28;20461;-49
2024/03/13 06:03:30;;;;;;;1.73;1.43;;;10.20;99.90;;;;;;5075460;28;21018;-49
2024/03/13 06:05:58;;;;;;;2.10;1.40;;;10.20;99.90;;;;;;5074521;28;20479;-49
2024/03/13 06:08:27;;;;;;;2.07;1.33;;;10.20;99.90;;;;;;5073551;28;20976;-47
2024/03/13 06:10:55;;;;;;;2.00;1.40;;;10.20;99.90;;;;;;5073360;28;21023;-49
2024/03/13 06:13:24;;;;;;;2.40;1.50;;;10.20;99.90;;;;;;5075988;28;20437;-48
2024/03/13 06:15:53;;;;;;;2.37;1.47;;;10.20;99.90;;;;;;5077680;28;20514;-47
2024/03/13 06:18:22;;;;;;;2.40;1.73;;;10.20;99.90;;;;;;5072748;28;20463;-47
2024/03/13 06:20:51;;;;;;;2.00;1.43;;;10.20;99.90;;;;;;5077099;28;20480;-49
2024/03/13 06:23:20;;;;;;;3.30;1.63;;;10.20;99.90;;;;;;5073006;28;20435;-49
2024/03/13 06:25:48;;;;;;;2.53;1.73;;;10.20;99.90;;;;;;5073254;28;20825;-49
2024/03/13 06:31:03;;;;;;;1.73;1.47;;;10.20;99.90;;;;;;5077300;28;20547;-49
2024/03/13 06:33:32;;;;;;;2.13;1.67;;;10.20;99.90;;;;;;5074244;28;21002;-47
2024/03/13 06:36:01;;;;;;;1.70;1.40;;;10.20;99.90;;;;;;5073833;28;20964;-48
2024/03/13 06:38:29;;;;;;;2.00;1.37;;;10.20;99.90;;;;;;5074325;28;20553;-48
2024/03/13 06:40:57;;;;;;;1.83;1.20;;;10.20;99.90;;;;;;5076063;28;20541;-49
2024/03/13 06:43:26;;;;;;;2.00;1.50;;;10.20;99.90;;;;;;5067506;28;20482;-49
2024/03/13 06:45:54;;;;;;;1.80;1.23;;;10.20;99.90;;;;;;5074979;28;20430;-48
2024/03/13 06:48:26;;;;;;;2.20;1.40;;;10.20;99.90;;;;;;5070513;28;20978;-49
2024/03/13 06:50:54;;;;;;;1.93;1.00;;;10.20;99.90;;;;;;5074698;28;20572;-49
2024/03/13 06:53:23;;;;;;;2.40;1.40;;;10.20;99.90;;;;;;5069501;28;20518;-49
2024/03/13 06:55:52;;;;;;;2.60;1.30;;;10.20;99.90;;;;;;5072255;28;20497;-49
2024/03/13 06:58:21;;;;;;;2.00;1.40;;;10.20;99.90;;;;;;5070270;28;20600;-47
2024/03/13 07:00:50;;;;;;;1.80;1.10;;;10.20;99.90;;;;;;5075398;28;20828;-48
2024/03/13 07:03:18;;;;;;;1.93;1.30;;;10.20;99.90;;;;;;5075734;28;20918;-49
2024/03/13 07:05:46;;;;;;;2.40;1.47;;;10.20;99.90;;;;;;5071794;28;20454;-48
2024/03/13 07:08:15;;;;;;;1.93;1.30;;;10.20;99.90;;;;;;5071234;28;20515;-48
2024/03/13 07:10:43;;;;;;;1.90;1.40;;;10.20;99.90;;;;;;5073338;28;20463;-46
2024/03/13 07:13:11;;;;;;;1.97;1.43;;;10.20;99.90;;;;;;5074733;28;20875;-49
2024/03/13 07:15:42;;;;;;;2.43;1.40;;;10.20;99.90;;;;;;5074463;28;20951;-48
2024/03/13 07:18:10;;;;;;;2.00;1.43;;;10.20;99.90;;;;;;5070023;28;20457;-48
2024/03/13 07:20:40;;;;;;;2.43;1.60;;;10.20;99.90;;;;;;5067210;28;20827;-48
2024/03/13 07:23:09;;;;;;;1.87;1.30;;;10.20;99.90;;;;;;5069715;28;20513;-47
2024/03/13 07:25:37;;;;;;;2.07;1.53;;;10.20;99.90;;;;;;5070268;28;21090;-50
2024/03/13 07:28:08;;;;;;;2.53;1.50;;;10.20;99.90;;;;;;5076031;28;20499;-49
2024/03/13 07:30:36;;;;;;;2.53;1.57;;;10.20;99.90;;;;;;5071774;28;20469;-46
2024/03/13 07:33:08;;;;;;;2.07;1.37;;;10.20;99.90;;;;;;5057185;28;20449;-48
2024/03/13 07:35:36;;;;;;;2.60;1.73;;;10.20;99.90;;;;;;5074052;28;20458;-49
2024/03/13 07:38:09;;;;;;;2.47;1.70;;;10.20;99.90;;;;;;5076547;28;20936;-47
2024/03/13 07:40:39;;;;;;;1.90;1.10;;;10.20;99.90;;;;;;5070975;28;20447;-46
2024/03/13 07:43:09;;;;;;;3.10;1.60;;;10.20;99.90;;;;;;5069459;28;20801;-48
2024/03/13 07:45:37;;;;;;;2.50;1.77;;;10.20;99.90;;;;;;5072049;28;20428;-47
2024/03/13 07:48:07;;;;;;;2.10;1.47;;;10.20;99.90;;;;;;5076738;28;20451;-51
2024/03/13 07:50:38;;;;;;;2.80;2.10;;;10.20;99.90;;;;;;5073221;28;20573;-49
2024/03/13 07:53:06;;;;;;;2.53;2.07;;;10.20;99.90;;;;;;5068154;28;20452;-48
2024/03/13 07:55:36;;;;;;;2.13;1.30;;;10.20;99.90;;;;;;5069193;28;20459;-46
2024/03/13 07:58:05;;;;;;;1.90;1.70;;;10.20;99.90;;;;;;5073651;28;20507;-48
2024/03/13 08:00:35;;;;;;;2.77;1.67;;;10.20;99.90;;;;;;5067412;28;20630;-48
2024/03/13 08:03:04;;;;;;;2.50;1.90;;;10.20;99.90;;;;;;5075058;28;20442;-49
2024/03/13 08:05:32;;;;;;;2.33;1.47;;;10.20;99.90;;;;;;5068054;28;20442;-46
2024/03/13 08:08:01;;;;;;;2.50;1.67;;;10.20;99.90;;;;;;5065905;28;20866;-47
2024/03/13 08:10:46;;;;;;;1.97;1.50;;;10.20;99.90;;;;;;5050323;28;20555;-48
2024/03/13 08:13:32;;;;;;;2.50;1.60;;;10.20;99.90;;;;;;5069636;28;20428;-48
2024/03/13 08:16:17;;;;;;;1.97;1.60;;;10.20;99.90;;;;;;5073562;28;20443;-46
2024/03/13 08:19:03;;;;;;;1.70;1.13;;;10.20;99.90;;;;;;5076741;28;20968;-47
2024/03/13 08:21:49;;;;;;;1.87;1.23;;;10.20;99.90;;;;;;5068240;28;20502;-48
2024/03/13 08:24:34;;;;;;;2.70;1.40;;;10.20;99.90;;;;;;5069997;28;20522;-49
2024/03/13 08:27:20;;;;;;;1.80;1.43;;;10.20;99.90;;;;;;5066272;28;20477;-48
2024/03/13 08:30:07;;;;;;;2.43;1.53;;;10.20;99.90;;;;;;5074465;28;20458;-49
2024/03/13 08:32:53;;;;;;;2.43;1.60;;;10.20;99.90;;;;;;5071728;28;20442;-49
2024/03/13 08:35:41;;;;;;;1.67;1.10;;;10.20;99.90;;;;;;5071331;28;20442;-47
2024/03/13 08:38:27;;;;;;;2.23;1.50;;;10.20;99.90;;;;;;5068692;28;20544;-49
2024/03/13 08:41:14;;;;;;;2.53;1.60;;;10.20;99.90;;;;;;5067631;28;20645;-48
2024/03/13 08:44:02;;;;;;;2.60;1.63;;;10.20;99.90;;;;;;5075825;28;20433;-48
2024/03/13 08:46:49;;;;;;;2.43;1.67;;;10.20;99.90;;;;;;5059619;28;20946;-48
2024/03/13 08:49:35;;;;;;;2.90;1.73;;;10.20;99.90;;;;;;5069255;28;20515;-45
2024/03/13 08:52:21;;;;;;;2.17;1.50;;;10.20;99.90;;;;;;5077274;28;20552;-48
2024/03/13 08:55:06;;;;;;;1.40;1.10;;;10.20;99.90;;;;;;5079619;28;20425;-48
2024/03/13 08:57:52;;;;;;;1.97;1.43;;;10.20;99.90;;;;;;5074407;28;20500;-47
2024/03/13 09:00:37;;;;;;;1.93;1.20;;;10.20;99.90;;;;;;5074125;28;20932;-49
2024/03/13 09:03:23;;;;;;;2.60;1.60;;;10.20;99.90;;;;;;5075457;28;20423;-49
2024/03/13 09:06:14;;;;;;;1.60;1.10;;;10.30;99.90;;;;;;5073937;28;20468;-46
2024/03/13 09:08:44;;;;;;;2.00;1.33;;;10.20;99.90;;;;;;5072403;28;20494;-46
2024/03/13 09:11:17;;;;;;;1.70;1.00;;;10.30;99.90;;;;;;5071603;28;20457;-47
2024/03/13 09:13:46;;;;;;;2.63;1.47;;;10.30;99.90;;;;;;5075139;28;20527;-46
2024/03/13 09:16:15;;;;;;;1.87;1.37;;;10.20;99.90;;;;;;5077283;28;20589;-49
2024/03/13 09:18:43;;;;;;;1.90;1.23;;;10.30;99.90;;;;;;5073383;28;20486;-46
2024/03/13 09:21:13;;;;;;;1.80;1.10;;;10.30;99.90;;;;;;5060600;28;20796;-49
2024/03/13 09:23:42;;;;;;;1.63;1.10;;;10.20;99.90;;;;;;5075972;28;20435;-49
2024/03/13 09:26:12;;;;;;;2.03;1.33;;;10.30;99.90;;;;;;5073281;28;20514;-49
2024/03/13 09:28:41;;;;;;;2.10;1.17;;;10.20;99.90;;;;;;5069800;28;20985;-47
2024/03/13 09:31:09;;;;;;;1.63;1.20;;;10.20;99.90;;;;;;5074838;28;20513;-47
2024/03/13 09:33:37;;;;;;;2.20;1.50;;;10.30;99.90;;;;;;5071673;28;20559;-49
2024/03/13 09:36:08;;;;;;;2.10;1.43;;;10.30;99.90;;;;;;5075945;28;20697;-48
2024/03/13 09:38:36;;;;;;;2.73;1.63;;;10.30;99.90;;;;;;5077350;28;20456;-48
2024/03/13 09:41:06;;;;;;;3.17;1.47;;;10.30;99.90;;;;;;5072562;28;20443;-47
2024/03/13 09:43:36;;;;;;;2.33;1.60;;;10.30;99.90;;;;;;5074441;28;20436;-47
2024/03/13 09:46:04;;;;;;;3.03;1.10;;;10.30;99.90;;;;;;5077245;28;20437;-47
2024/03/13 09:48:33;;;;;;;1.93;1.40;;;10.30;99.90;;;;;;5077019;28;20435;-49
2024/03/13 09:51:01;;;;;;;2.00;1.30;;;10.30;99.90;;;;;;5078384;28;20471;-48
2024/03/13 09:53:33;;;;;;;2.67;1.50;;;10.30;99.90;;;;;;5070849;28;20445;-48
2024/03/13 09:56:02;;;;;;;2.10;1.17;;;10.30;99.90;;;;;;5075191;28;20446;-47
2024/03/13 09:58:30;;;;;;;2.20;1.47;;;10.30;99.90;;;;;;5069586;28;20462;-49
2024/03/13 10:00:59;;;;;;;2.10;1.40;;;10.30;99.90;;;;;;5075461;28;20937;-48
2024/03/13 10:03:28;;;;;;;2.10;1.30;;;10.30;99.90;;;;;;5073495;28;20803;-48
2024/03/13 10:05:57;;;;;;;2.17;1.20;;;10.30;99.90;;;;;;5077286;28;20841;-47
2024/03/13 10:08:25;;;;;;;1.70;1.20;;;10.30;99.90;;;;;;5073259;28;20442;-47
2024/03/13 10:10:53;;;;;;;2.30;1.50;;;10.30;99.90;;;;;;5071018;28;20973;-47
2024/03/13 10:13:21;;;;;;;2.30;1.13;;;10.30;99.90;;;;;;5077385;28;20423;-48
2024/03/13 10:15:49;;;;;;;2.40;1.23;;;10.30;99.90;;;;;;5075601;28;20419;-49
2024/03/13 10:18:19;;;;;;;1.80;1.03;;;10.30;99.90;;;;;;5069556;28;20510;-46
2024/03/13 10:20:48;;;;;;;2.07;1.60;;;10.30;99.90;;;;;;5073388;28;20501;-49
2024/03/13 10:23:17;;;;;;;2.10;1.37;;;10.30;99.90;;;;;;5072672;28;20531;-48
2024/03/13 10:25:45;;;;;;;1.60;1.13;;;10.30;99.90;;;;;;5073880;28;20482;-48
2024/03/13 10:28:17;;;;;;;1.87;1.47;;;10.30;99.90;;;;;;5072548;28;20846;-48
2024/03/13 10:30:47;;;;;;;1.93;1.40;;;10.30;99.90;;;;;;5073464;28;20449;-48
2024/03/13 10:33:15;;;;;;;1.80;1.13;;;10.30;99.90;;;;;;5074332;28;20554;-48
2024/03/13 10:35:44;;;;;;;2.07;1.47;;;10.30;99.90;;;;;;5073199;28;20442;-48
2024/03/13 10:38:14;;;;;;;1.53;1.00;;;10.30;99.90;;;;;;5075718;28;20538;-48
2024/03/13 10:40:42;;;;;;;1.50;1.20;;;10.30;99.90;;;;;;5074178;28;20522;-48
2024/03/13 10:43:11;;;;;;;1.70;1.23;;;10.30;99.90;;;;;;5073636;28;20472;-48
2024/03/13 10:45:39;;;;;;;2.07;1.27;;;10.30;99.90;;;;;;5076281;28;20519;-49
2024/03/13 10:48:08;;;;;;;1.70;1.00;;;10.30;99.90;;;;;;5073756;28;20454;-46
2024/03/13 10:50:37;;;;;;;3.23;1.30;;;10.30;99.90;;;;;;5075052;28;20448;-51
2024/03/13 10:53:06;;;;;;;2.50;1.20;;;10.30;99.90;;;;;;5075775;28;20471;-48
2024/03/13 10:55:35;;;;;;;2.13;1.30;;;10.30;99.90;;;;;;5072905;28;20451;-47
2024/03/13 10:58:04;;;;;;;2.57;1.20;;;10.30;99.90;;;;;;5072661;28;20964;-47
2024/03/13 11:00:32;;;;;;;1.97;1.43;;;10.30;99.90;;;;;;5075774;28;20802;-48
2024/03/13 11:03:01;;;;;;;3.13;1.40;;;10.30;99.90;;;;;;5078680;28;20454;-49
2024/03/13 11:05:29;;;;;;;2.40;1.30;;;10.40;99.90;;;;;;5065397;28;20523;-49
2024/03/13 11:07:59;;;;;;;2.03;1.17;;;10.40;99.90;;;;;;5077836;28;20518;-48
2024/03/13 11:10:27;;;;;;;3.00;1.70;;;10.40;99.90;;;;;;5074256;28;20777;-50
2024/03/13 11:12:55;;;;;;;1.93;1.23;;;10.40;99.90;;;;;;5073817;28;20470;-47
2024/03/13 11:15:24;;;;;;;1.70;1.10;;;10.40;99.90;;;;;;5073661;28;20467;-48
2024/03/13 11:17:52;;;;;;;2.10;1.10;;;10.40;99.90;;;;;;5071525;28;20452;-47
2024/03/13 11:20:21;;;;;;;2.00;1.30;;;10.40;99.90;;;;;;5050898;28;20511;-47
2024/03/13 11:22:50;;;;;;;1.53;1.13;;;10.40;99.90;;;;;;5073988;28;20431;-48
2024/03/13 11:25:19;;;;;;;2.50;1.10;;;10.40;99.90;;;;;;5071066;28;20502;-48
2024/03/13 11:27:48;;;;;;;2.00;1.10;;;10.40;99.90;;;;;;5072124;28;20796;-49
2024/03/13 11:30:17;;;;;;;2.40;1.10;;;10.40;99.90;;;;;;5077376;28;20507;-48
2024/03/13 11:32:46;;;;;;;2.10;1.47;;;10.40;99.90;;;;;;5075107;28;20881;-48
2024/03/13 11:35:14;;;;;;;4.00;1.20;;;10.40;99.90;;;;;;5070627;28;20450;-46
2024/03/13 11:37:44;;;;;;;2.50;1.30;;;10.40;99.90;;;;;;5066829;28;20523;-50
2024/03/13 11:40:13;;;;;;;2.43;1.60;;;10.40;99.90;;;;;;5071494;28;20431;-50
2024/03/13 11:42:41;;;;;;;2.13;1.30;;;10.40;99.90;;;;;;5075607;28;20532;-48
2024/03/13 11:45:15;;;;;;;1.63;1.10;;;10.40;99.90;;;;;;5069749;28;20416;-50
2024/03/13 11:47:47;;;;;;;1.63;1.07;;;10.40;99.90;;;;;;5070073;28;20482;-49
2024/03/13 11:50:16;;;;;;;1.60;1.10;;;10.40;99.90;;;;;;5069429;28;20436;-47
2024/03/13 11:53:00;;;;;;;2.57;1.20;;;10.40;99.90;;;;;;5069240;28;20465;-48
2024/03/13 11:55:29;;;;;;;1.73;1.20;;;10.40;99.90;;;;;;5065167;28;20505;-47
2024/03/13 11:58:06;;;;;;;3.00;1.90;;;10.40;99.90;;;;;;5072898;28;20519;-47
2024/03/13 12:00:34;;;;;;;1.93;1.20;;;10.40;99.90;;;;;;5075062;28;20930;-49
2024/03/13 12:03:03;;;;;;;1.73;1.20;;;10.40;99.90;;;;;;5056569;28;20991;-47
2024/03/13 12:05:36;;;;;;;1.70;1.00;;;10.40;99.90;;;;;;5050386;28;20469;-49
2024/03/13 12:08:04;;;;;;;1.53;1.07;;;10.40;99.90;;;;;;5072149;28;20834;-49
2024/03/13 12:10:32;;;;;;;1.60;1.07;;;10.40;99.90;;;;;;5072623;28;20551;-46
2024/03/13 12:13:00;;;;;;;1.97;1.17;;;10.40;99.90;;;;;;5075106;28;20478;-48
2024/03/13 12:15:30;;;;;;;1.97;1.30;;;10.40;99.90;;;;;;5071371;28;20514;-47
2024/03/13 12:18:04;;;;;;;1.73;1.20;;;10.40;99.90;;;;;;5067435;28;20452;-49
2024/03/13 12:20:36;;;;;;;1.60;1.20;;;10.40;99.90;;;;;;5054981;28;20483;-47
2024/03/13 12:23:06;;;;;;;1.90;1.27;;;10.40;99.90;;;;;;5076881;28;20479;-50
2024/03/13 12:25:35;;;;;;;2.10;1.33;;;10.40;99.90;;;;;;5071484;28;20456;-49
2024/03/13 12:28:03;;;;;;;2.07;1.30;;;10.40;99.90;;;;;;5078679;28;20445;-46
2024/03/13 12:30:32;;;;;;;1.77;1.00;;;10.40;99.90;;;;;;5083163;28;20429;-48
2024/03/13 12:33:01;;;;;;;2.50;1.30;;;10.40;99.90;;;;;;5077248;28;20477;-48
2024/03/13 12:35:30;;;;;;;2.30;1.17;;;10.40;99.90;;;;;;5074753;28;20475;-47
2024/03/13 12:37:58;;;;;;;1.33;0.90;;;10.40;99.90;;;;;;5081988;28;20458;-47
2024/03/13 12:40:27;;;;;;;2.20;1.40;;;10.40;99.90;;;;;;5077686;28;20432;-48
2024/03/13 12:42:55;;;;;;;1.90;1.10;;;10.40;99.90;;;;;;5079522;28;20422;-49
2024/03/13 12:45:26;;;;;;;1.93;1.20;;;10.40;99.90;;;;;;5076992;28;20444;-48
2024/03/13 12:47:54;;;;;;;1.70;1.10;;;10.40;99.90;;;;;;5080595;28;20472;-51
2024/03/13 12:50:23;;;;;;;2.37;1.50;;;10.40;99.90;;;;;;5075228;28;20477;-48
2024/03/13 12:52:51;;;;;;;2.07;0.80;;;10.40;99.90;;;;;;5080402;28;20462;-47
2024/03/13 12:55:21;;;;;;;2.03;0.93;;;10.40;99.90;;;;;;5080122;28;20426;-47
2024/03/13 12:57:48;;;;;;;1.90;1.27;;;10.50;99.90;;;;;;5077428;28;20450;-48
2024/03/13 13:00:18;;;;;;;1.80;1.10;;;10.50;99.90;;;;;;5080820;28;20431;-48
2024/03/13 13:02:48;;;;;;;1.90;1.00;;;10.50;99.90;;;;;;5075246;28;20445;-47
2024/03/13 13:05:16;;;;;;;1.40;1.00;;;10.50;99.90;;;;;;5079261;28;20425;-46
2024/03/13 13:07:51;;;;;;;1.93;1.03;;;10.50;99.90;;;;;;5075144;28;20966;-48
2024/03/13 13:10:21;;;;;;;2.20;1.00;;;10.40;99.90;;;;;;5073920;28;20812;-48
2024/03/13 13:12:50;;;;;;;2.20;1.40;;;10.50;99.90;;;;;;5058592;28;20987;-47
2024/03/13 13:15:19;;;;;;;2.73;1.30;;;10.50;99.90;;;;;;5076767;28;20946;-48
2024/03/13 13:17:49;;;;;;;1.80;1.10;;;10.40;99.90;;;;;;5073000;28;20462;-47
2024/03/13 13:20:18;;;;;;;1.40;1.00;;;10.40;99.90;;;;;;5079392;28;20453;-47
2024/03/13 13:22:47;;;;;;;1.93;1.37;;;10.50;99.90;;;;;;5074831;28;20425;-48